sensor_id;sensor_type;location;lat;lon;timestamp;pressure;altitude;pressure_sealevel;temperature;humidity
72124;BME280;63818;37.134;-8.548;2024-03-08T00:04:29;100848.6;;;12.1;76.7
72124;BME280;63818;37.134;-8.548;2024-03-08T00:09:18;100838.8;;;12.0;76.8
72124;BME280;63818;37.134;-8.548;2024-03-08T00:14:05;100846.4;;;12.1;76.5
72124;BME280;63818;37.134;-8.548;2024-03-08T00:18:54;100842.0;;;12.1;76.1
72124;BME280;63818;37.134;-8.548;2024-03-08T00:23:42;100844.5;;;11.9;77.0
72124;BME280;63818;37.134;-8.548;2024-03-08T00:28:30;100835.1;;;12.0;77.2
72124;BME280;63818;37.134;-8.548;2024-03-08T00:33:21;100832.8;;;12.0;77.4
72124;BME280;63818;37.134;-8.548;2024-03-08T00:38:09;100816.8;;;11.9;77.7
72124;BME280;63818;37.134;-8.548;2024-03-08T00:42:57;100822.8;;;11.9;78.2
72124;BME280;63818;37.134;-8.548;2024-03-08T00:47:46;100842.3;;;11.9;78.5
72124;BME280;63818;37.134;-8.548;2024-03-08T00:52:35;100827.2;;;11.9;78.5
72124;BME280;63818;37.134;-8.548;2024-03-08T00:57:23;100830.9;;;11.9;78.0
72124;BME280;63818;37.134;-8.548;2024-03-08T01:02:11;100823.7;;;11.9;78.5
72124;BME280;63818;37.134;-8.548;2024-03-08T01:07:02;100821.3;;;11.8;78.5
72124;BME280;63818;37.134;-8.548;2024-03-08T01:11:50;100811.2;;;12.0;77.9
72124;BME280;63818;37.134;-8.548;2024-03-08T01:16:39;100818.6;;;11.9;77.9
72124;BME280;63818;37.134;-8.548;2024-03-08T01:21:27;100815.3;;;11.9;78.0
72124;BME280;63818;37.134;-8.548;2024-03-08T01:26:16;100816.8;;;11.8;78.4
72124;BME280;63818;37.134;-8.548;2024-03-08T01:31:04;100811.4;;;11.8;78.5
72124;BME280;63818;37.134;-8.548;2024-03-08T01:35:52;100809.9;;;11.8;78.6
72124;BME280;63818;37.134;-8.548;2024-03-08T01:40:41;100813.0;;;11.9;79.1
72124;BME280;63818;37.134;-8.548;2024-03-08T01:45:28;100807.2;;;11.7;79.3
72124;BME280;63818;37.134;-8.548;2024-03-08T01:50:23;100803.3;;;11.5;79.7
72124;BME280;63818;37.134;-8.548;2024-03-08T01:55:12;100800.5;;;11.5;80.4
72124;BME280;63818;37.134;-8.548;2024-03-08T02:00:03;100801.9;;;11.6;80.2
72124;BME280;63818;37.134;-8.548;2024-03-08T02:04:53;100793.5;;;11.4;80.4
72124;BME280;63818;37.134;-8.548;2024-03-08T02:09:42;100784.0;;;11.4;80.4
72124;BME280;63818;37.134;-8.548;2024-03-08T02:14:30;100782.9;;;11.4;80.0
72124;BME280;63818;37.134;-8.548;2024-03-08T02:19:18;100779.5;;;11.5;80.0
72124;BME280;63818;37.134;-8.548;2024-03-08T02:24:14;100775.0;;;11.6;79.8
72124;BME280;63818;37.134;-8.548;2024-03-08T02:29:03;100768.3;;;11.5;79.8
72124;BME280;63818;37.134;-8.548;2024-03-08T02:33:51;100777.2;;;11.5;80.3
72124;BME280;63818;37.134;-8.548;2024-03-08T02:38:41;100765.7;;;11.6;79.8
72124;BME280;63818;37.134;-8.548;2024-03-08T02:43:29;100783.7;;;11.5;79.6
72124;BME280;63818;37.134;-8.548;2024-03-08T02:48:17;100759.8;;;11.2;78.1
72124;BME280;63818;37.134;-8.548;2024-03-08T02:53:05;100758.9;;;11.2;79.5
72124;BME280;63818;37.134;-8.548;2024-03-08T02:57:56;100758.2;;;11.4;79.0
72124;BME280;63818;37.134;-8.548;2024-03-08T03:02:44;100758.9;;;11.2;79.7
72124;BME280;63818;37.134;-8.548;2024-03-08T03:07:32;100753.8;;;11.1;79.9
72124;BME280;63818;37.134;-8.548;2024-03-08T03:12:23;100757.7;;;11.1;78.8
72124;BME280;63818;37.134;-8.548;2024-03-08T03:17:12;100767.6;;;11.2;78.9
72124;BME280;63818;37.134;-8.548;2024-03-08T03:22:01;100771.3;;;10.9;78.3
72124;BME280;63818;37.134;-8.548;2024-03-08T03:26:49;100753.0;;;11.1;77.9
72124;BME280;63818;37.134;-8.548;2024-03-08T03:31:37;100754.6;;;11.3;77.4
72124;BME280;63818;37.134;-8.548;2024-03-08T03:36:25;100745.5;;;11.4;76.7
72124;BME280;63818;37.134;-8.548;2024-03-08T03:41:14;100759.6;;;11.3;76.7
72124;BME280;63818;37.134;-8.548;2024-03-08T03:46:04;100733.6;;;11.3;77.2
72124;BME280;63818;37.134;-8.548;2024-03-08T03:50:53;100731.3;;;11.4;77.8
72124;BME280;63818;37.134;-8.548;2024-03-08T03:55:41;100731.4;;;11.4;77.4
72124;BME280;63818;37.134;-8.548;2024-03-08T04:00:29;100719.9;;;11.5;77.3
72124;BME280;63818;37.134;-8.548;2024-03-08T04:05:22;100721.8;;;11.6;76.8
72124;BME280;63818;37.134;-8.548;2024-03-08T04:10:11;100716.8;;;11.7;76.8
72124;BME280;63818;37.134;-8.548;2024-03-08T04:15:00;100706.2;;;11.7;75.6
72124;BME280;63818;37.134;-8.548;2024-03-08T04:19:51;100711.0;;;11.8;74.8
72124;BME280;63818;37.134;-8.548;2024-03-08T04:24:39;100715.5;;;11.7;74.5
72124;BME280;63818;37.134;-8.548;2024-03-08T04:29:29;100732.1;;;11.7;75.0
72124;BME280;63818;37.134;-8.548;2024-03-08T04:34:17;100725.7;;;11.4;76.3
72124;BME280;63818;37.134;-8.548;2024-03-08T04:39:08;100734.9;;;11.3;76.9
72124;BME280;63818;37.134;-8.548;2024-03-08T04:43:56;100729.5;;;11.4;77.3
72124;BME280;63818;37.134;-8.548;2024-03-08T04:48:55;100731.3;;;11.4;76.3
72124;BME280;63818;37.134;-8.548;2024-03-08T04:53:43;100724.0;;;11.5;75.6
72124;BME280;63818;37.134;-8.548;2024-03-08T04:58:32;100725.3;;;11.4;74.9
72124;BME280;63818;37.134;-8.548;2024-03-08T05:03:20;100725.1;;;11.4;74.0
72124;BME280;63818;37.134;-8.548;2024-03-08T05:08:08;100727.0;;;11.3;73.7
72124;BME280;63818;37.134;-8.548;2024-03-08T05:12:56;100728.6;;;11.4;72.8
72124;BME280;63818;37.134;-8.548;2024-03-08T05:17:46;100728.1;;;11.4;72.4
72124;BME280;63818;37.134;-8.548;2024-03-08T05:22:34;100728.1;;;11.4;71.9
72124;BME280;63818;37.134;-8.548;2024-03-08T05:27:22;100726.8;;;11.4;70.5
72124;BME280;63818;37.134;-8.548;2024-03-08T05:32:10;100731.6;;;11.3;70.6
72124;BME280;63818;37.134;-8.548;2024-03-08T05:37:08;100738.4;;;11.4;69.8
72124;BME280;63818;37.134;-8.548;2024-03-08T05:41:56;100752.0;;;11.3;70.0
72124;BME280;63818;37.134;-8.548;2024-03-08T05:46:54;100786.5;;;11.4;70.9
72124;BME280;63818;37.134;-8.548;2024-03-08T05:51:42;100772.7;;;11.2;73.2
72124;BME280;63818;37.134;-8.548;2024-03-08T05:56:32;100801.4;;;11.1;76.6
72124;BME280;63818;37.134;-8.548;2024-03-08T06:01:23;100792.2;;;10.8;77.2
72124;BME280;63818;37.134;-8.548;2024-03-08T06:06:10;100775.2;;;10.9;76.8
72124;BME280;63818;37.134;-8.548;2024-03-08T06:11:03;100783.4;;;10.9;76.9
72124;BME280;63818;37.134;-8.548;2024-03-08T06:15:52;100785.4;;;10.9;77.5
72124;BME280;63818;37.134;-8.548;2024-03-08T06:20:42;100800.5;;;11.0;78.3
72124;BME280;63818;37.134;-8.548;2024-03-08T06:25:30;100798.3;;;11.0;77.8
72124;BME280;63818;37.134;-8.548;2024-03-08T06:30:18;100806.2;;;11.0;78.0
72124;BME280;63818;37.134;-8.548;2024-03-08T06:35:09;100808.6;;;11.1;78.6
72124;BME280;63818;37.134;-8.548;2024-03-08T06:39:57;100815.1;;;11.0;79.2
72124;BME280;63818;37.134;-8.548;2024-03-08T06:44:46;100818.8;;;11.1;79.7
72124;BME280;63818;37.134;-8.548;2024-03-08T06:49:33;100836.4;;;10.9;80.8
72124;BME280;63818;37.134;-8.548;2024-03-08T06:54:26;100857.0;;;10.7;82.9
72124;BME280;63818;37.134;-8.548;2024-03-08T06:59:14;100841.1;;;10.9;83.4
72124;BME280;63818;37.134;-8.548;2024-03-08T07:04:04;100838.2;;;11.1;83.7
72124;BME280;63818;37.134;-8.548;2024-03-08T07:08:53;100840.3;;;11.1;83.5
72124;BME280;63818;37.134;-8.548;2024-03-08T07:13:41;100834.1;;;10.9;84.9
72124;BME280;63818;37.134;-8.548;2024-03-08T07:18:29;100832.4;;;11.1;85.5
72124;BME280;63818;37.134;-8.548;2024-03-08T07:23:17;100839.4;;;11.2;85.2
72124;BME280;63818;37.134;-8.548;2024-03-08T07:28:05;100846.7;;;11.2;85.5
72124;BME280;63818;37.134;-8.548;2024-03-08T07:32:53;100846.7;;;11.3;84.7
72124;BME280;63818;37.134;-8.548;2024-03-08T07:37:41;100848.7;;;11.4;84.5
72124;BME280;63818;37.134;-8.548;2024-03-08T07:42:29;100861.2;;;11.4;84.9
72124;BME280;63818;37.134;-8.548;2024-03-08T07:47:17;100856.8;;;11.5;84.2
72124;BME280;63818;37.134;-8.548;2024-03-08T07:52:05;100853.9;;;11.5;84.5
72124;BME280;63818;37.134;-8.548;2024-03-08T07:56:58;100864.6;;;11.6;85.2
72124;BME280;63818;37.134;-8.548;2024-03-08T08:01:46;100875.5;;;11.5;85.3
72124;BME280;63818;37.134;-8.548;2024-03-08T08:06:37;100882.6;;;11.5;86.6
72124;BME280;63818;37.134;-8.548;2024-03-08T08:11:25;100899.7;;;11.5;87.7
72124;BME280;63818;37.134;-8.548;2024-03-08T08:16:15;100904.5;;;11.4;89.0
72124;BME280;63818;37.134;-8.548;2024-03-08T08:21:04;100913.7;;;11.3;89.8
72124;BME280;63818;37.134;-8.548;2024-03-08T08:25:52;100914.6;;;11.3;90.5
72124;BME280;63818;37.134;-8.548;2024-03-08T08:30:40;100896.8;;;11.4;90.4
72124;BME280;63818;37.134;-8.548;2024-03-08T08:35:30;100897.8;;;11.5;90.1
72124;BME280;63818;37.134;-8.548;2024-03-08T08:40:18;100899.9;;;11.6;89.5
72124;BME280;63818;37.134;-8.548;2024-03-08T08:45:07;100896.1;;;11.6;89.2
72124;BME280;63818;37.134;-8.548;2024-03-08T08:49:57;100902.7;;;11.6;89.0
72124;BME280;63818;37.134;-8.548;2024-03-08T08:54:46;100910.5;;;11.6;88.9
72124;BME280;63818;37.134;-8.548;2024-03-08T08:59:34;100912.9;;;11.6;89.2
72124;BME280;63818;37.134;-8.548;2024-03-08T09:04:25;100927.3;;;11.6;89.5
72124;BME280;63818;37.134;-8.548;2024-03-08T09:09:16;100926.1;;;11.7;90.2
72124;BME280;63818;37.134;-8.548;2024-03-08T09:14:07;100932.0;;;11.8;91.1
72124;BME280;63818;37.134;-8.548;2024-03-08T09:18:55;100925.2;;;11.8;91.0
72124;BME280;63818;37.134;-8.548;2024-03-08T09:23:46;100917.8;;;11.8;90.3
72124;BME280;63818;37.134;-8.548;2024-03-08T09:28:36;100917.8;;;11.9;90.4
72124;BME280;63818;37.134;-8.548;2024-03-08T09:33:32;100914.2;;;11.9;90.6
72124;BME280;63818;37.134;-8.548;2024-03-08T09:38:21;100914.5;;;12.0;90.8
72124;BME280;63818;37.134;-8.548;2024-03-08T09:43:11;100902.6;;;12.1;90.8
72124;BME280;63818;37.134;-8.548;2024-03-08T09:47:59;100904.9;;;12.2;90.8
72124;BME280;63818;37.134;-8.548;2024-03-08T09:52:49;100892.7;;;12.3;91.1
72124;BME280;63818;37.134;-8.548;2024-03-08T09:57:38;100893.4;;;12.4;91.6
72124;BME280;63818;37.134;-8.548;2024-03-08T10:02:27;100893.2;;;12.3;92.0
72124;BME280;63818;37.134;-8.548;2024-03-08T10:07:15;100907.3;;;12.4;93.5
72124;BME280;63818;37.134;-8.548;2024-03-08T10:12:04;100910.8;;;12.5;94.3
72124;BME280;63818;37.134;-8.548;2024-03-08T10:16:53;100907.5;;;12.5;94.2
72124;BME280;63818;37.134;-8.548;2024-03-08T10:21:49;100901.5;;;12.5;94.2
72124;BME280;63818;37.134;-8.548;2024-03-08T10:26:45;100902.1;;;12.6;94.8
72124;BME280;63818;37.134;-8.548;2024-03-08T10:31:34;100900.4;;;12.7;94.9
72124;BME280;63818;37.134;-8.548;2024-03-08T10:36:23;100898.3;;;12.8;94.0
72124;BME280;63818;37.134;-8.548;2024-03-08T10:41:16;100889.7;;;12.8;93.3
72124;BME280;63818;37.134;-8.548;2024-03-08T10:46:15;100889.7;;;12.8;93.1
72124;BME280;63818;37.134;-8.548;2024-03-08T10:51:09;100912.6;;;12.9;94.8
72124;BME280;63818;37.134;-8.548;2024-03-08T10:55:59;100900.8;;;13.1;94.3
72124;BME280;63818;37.134;-8.548;2024-03-08T11:00:54;100892.0;;;13.0;90.7
72124;BME280;63818;37.134;-8.548;2024-03-08T11:05:43;100886.7;;;13.0;89.2
72124;BME280;63818;37.134;-8.548;2024-03-08T11:10:30;100883.7;;;13.0;85.5
72124;BME280;63818;37.134;-8.548;2024-03-08T11:15:20;100866.4;;;13.1;85.0
72124;BME280;63818;37.134;-8.548;2024-03-08T11:20:13;100859.9;;;13.1;85.4
72124;BME280;63818;37.134;-8.548;2024-03-08T11:25:07;100859.1;;;13.1;86.8
72124;BME280;63818;37.134;-8.548;2024-03-08T11:30:03;100854.7;;;13.2;88.4
72124;BME280;63818;37.134;-8.548;2024-03-08T11:34:53;100848.8;;;13.2;88.4
72124;BME280;63818;37.134;-8.548;2024-03-08T11:39:48;100850.4;;;13.2;88.8
72124;BME280;63818;37.134;-8.548;2024-03-08T11:44:37;100843.5;;;13.3;89.0
72124;BME280;63818;37.134;-8.548;2024-03-08T11:49:25;100850.1;;;13.3;88.7
72124;BME280;63818;37.134;-8.548;2024-03-08T11:54:13;100837.7;;;13.2;88.7
72124;BME280;63818;37.134;-8.548;2024-03-08T11:59:04;100819.4;;;13.3;89.1
72124;BME280;63818;37.134;-8.548;2024-03-08T12:03:54;100818.3;;;13.3;87.9
72124;BME280;63818;37.134;-8.548;2024-03-08T12:08:45;100809.2;;;13.4;87.1
72124;BME280;63818;37.134;-8.548;2024-03-08T12:13:34;100806.2;;;13.5;88.5
72124;BME280;63818;37.134;-8.548;2024-03-08T12:18:24;100801.9;;;13.4;89.1
72124;BME280;63818;37.134;-8.548;2024-03-08T12:23:15;100806.0;;;13.4;90.1
72124;BME280;63818;37.134;-8.548;2024-03-08T12:28:12;100798.9;;;13.4;90.2
72124;BME280;63818;37.134;-8.548;2024-03-08T12:33:03;100797.6;;;13.4;91.4
72124;BME280;63818;37.134;-8.548;2024-03-08T12:37:53;100792.3;;;13.5;92.0
72124;BME280;63818;37.134;-8.548;2024-03-08T12:42:41;100791.0;;;13.5;92.7
72124;BME280;63818;37.134;-8.548;2024-03-08T12:47:32;100772.4;;;13.7;93.1
72124;BME280;63818;37.134;-8.548;2024-03-08T12:52:20;100752.8;;;13.8;88.5
72124;BME280;63818;37.134;-8.548;2024-03-08T12:57:10;100745.6;;;13.9;87.8
72124;BME280;63818;37.134;-8.548;2024-03-08T13:01:58;100726.7;;;14.1;87.8
72124;BME280;63818;37.134;-8.548;2024-03-08T13:06:47;100716.8;;;14.1;85.8
72124;BME280;63818;37.134;-8.548;2024-03-08T13:11:35;100712.9;;;14.1;86.1
72124;BME280;63818;37.134;-8.548;2024-03-08T13:16:27;100706.3;;;14.1;86.7
72124;BME280;63818;37.134;-8.548;2024-03-08T13:21:16;100687.8;;;14.2;87.3
72124;BME280;63818;37.134;-8.548;2024-03-08T13:26:07;100687.7;;;14.3;87.6
72124;BME280;63818;37.134;-8.548;2024-03-08T13:31:02;100681.5;;;14.3;88.7
72124;BME280;63818;37.134;-8.548;2024-03-08T13:35:50;100676.0;;;14.2;89.7
72124;BME280;63818;37.134;-8.548;2024-03-08T13:40:40;100667.6;;;14.2;90.8
72124;BME280;63818;37.134;-8.548;2024-03-08T13:45:28;100646.5;;;14.3;89.9
72124;BME280;63818;37.134;-8.548;2024-03-08T13:50:17;100633.5;;;14.3;87.8
72124;BME280;63818;37.134;-8.548;2024-03-08T13:55:05;100624.1;;;14.4;87.8
72124;BME280;63818;37.134;-8.548;2024-03-08T13:59:54;100621.8;;;14.4;87.4
72124;BME280;63818;37.134;-8.548;2024-03-08T14:04:43;100606.9;;;14.4;87.7
72124;BME280;63818;37.134;-8.548;2024-03-08T14:09:33;100599.6;;;14.4;89.0
72124;BME280;63818;37.134;-8.548;2024-03-08T14:14:22;100591.0;;;14.4;89.5
72124;BME280;63818;37.134;-8.548;2024-03-08T14:19:10;100582.6;;;14.5;89.9
72124;BME280;63818;37.134;-8.548;2024-03-08T14:23:58;100564.4;;;14.6;90.0
72124;BME280;63818;37.134;-8.548;2024-03-08T14:28:46;100557.0;;;14.8;90.6
72124;BME280;63818;37.134;-8.548;2024-03-08T14:33:34;100551.4;;;14.9;91.0
72124;BME280;63818;37.134;-8.548;2024-03-08T14:38:23;100554.7;;;14.8;91.3
72124;BME280;63818;37.134;-8.548;2024-03-08T14:43:15;100549.8;;;14.9;90.8
72124;BME280;63818;37.134;-8.548;2024-03-08T14:48:03;100534.7;;;15.1;90.2
72124;BME280;63818;37.134;-8.548;2024-03-08T14:52:55;100531.1;;;15.3;91.0
72124;BME280;63818;37.134;-8.548;2024-03-08T14:57:43;100493.2;;;15.3;90.8
72124;BME280;63818;37.134;-8.548;2024-03-08T15:02:33;100503.7;;;15.4;89.7
72124;BME280;63818;37.134;-8.548;2024-03-08T15:07:22;100494.4;;;15.3;89.4
72124;BME280;63818;37.134;-8.548;2024-03-08T15:12:10;100491.7;;;15.2;90.1
72124;BME280;63818;37.134;-8.548;2024-03-08T15:17:03;100483.2;;;15.3;89.2
72124;BME280;63818;37.134;-8.548;2024-03-08T15:21:51;100467.4;;;15.6;86.6
72124;BME280;63818;37.134;-8.548;2024-03-08T15:26:39;100482.3;;;15.6;86.6
72124;BME280;63818;37.134;-8.548;2024-03-08T15:31:27;100461.6;;;15.6;88.1
72124;BME280;63818;37.134;-8.548;2024-03-08T15:36:17;100468.2;;;15.5;90.1
72124;BME280;63818;37.134;-8.548;2024-03-08T15:41:05;100447.5;;;15.3;90.7
72124;BME280;63818;37.134;-8.548;2024-03-08T15:45:56;100440.1;;;15.1;92.2
72124;BME280;63818;37.134;-8.548;2024-03-08T15:50:46;100440.2;;;15.0;94.1
72124;BME280;63818;37.134;-8.548;2024-03-08T15:55:36;100431.5;;;14.9;96.2
72124;BME280;63818;37.134;-8.548;2024-03-08T16:00:27;100430.3;;;14.8;98.6
72124;BME280;63818;37.134;-8.548;2024-03-08T16:05:17;100426.8;;;14.7;100.0
72124;BME280;63818;37.134;-8.548;2024-03-08T16:10:08;100417.5;;;14.6;100.0
72124;BME280;63818;37.134;-8.548;2024-03-08T16:14:56;100394.7;;;14.6;100.0
72124;BME280;63818;37.134;-8.548;2024-03-08T16:19:44;100402.1;;;14.6;100.0
72124;BME280;63818;37.134;-8.548;2024-03-08T16:24:32;100392.2;;;14.6;100.0
72124;BME280;63818;37.134;-8.548;2024-03-08T16:29:23;100384.0;;;14.6;100.0
72124;BME280;63818;37.134;-8.548;2024-03-08T16:34:11;100382.1;;;14.6;100.0
72124;BME280;63818;37.134;-8.548;2024-03-08T16:39:02;100389.5;;;14.6;100.0
72124;BME280;63818;37.134;-8.548;2024-03-08T16:43:50;100376.8;;;14.6;100.0
72124;BME280;63818;37.134;-8.548;2024-03-08T16:48:40;100359.4;;;14.6;100.0
72124;BME280;63818;37.134;-8.548;2024-03-08T16:58:21;100349.0;;;14.6;100.0
72124;BME280;63818;37.134;-8.548;2024-03-08T17:03:09;100352.8;;;14.6;100.0
72124;BME280;63818;37.134;-8.548;2024-03-08T17:07:58;100329.4;;;14.5;100.0
72124;BME280;63818;37.134;-8.548;2024-03-08T17:12:53;100337.0;;;14.4;100.0
72124;BME280;63818;37.134;-8.548;2024-03-08T17:17:41;100328.8;;;14.4;100.0
72124;BME280;63818;37.134;-8.548;2024-03-08T17:22:29;100316.8;;;14.3;100.0
72124;BME280;63818;37.134;-8.548;2024-03-08T17:27:17;100322.3;;;14.2;100.0
72124;BME280;63818;37.134;-8.548;2024-03-08T17:32:06;100302.7;;;14.2;100.0
72124;BME280;63818;37.134;-8.548;2024-03-08T17:36:54;100309.0;;;14.2;100.0
72124;BME280;63818;37.134;-8.548;2024-03-08T17:41:42;100300.6;;;14.3;100.0
72124;BME280;63818;37.134;-8.548;2024-03-08T17:46:30;100295.7;;;14.3;100.0
72124;BME280;63818;37.134;-8.548;2024-03-08T17:51:20;100285.7;;;14.4;100.0
72124;BME280;63818;37.134;-8.548;2024-03-08T17:56:08;100280.8;;;14.4;100.0
72124;BME280;63818;37.134;-8.548;2024-03-08T18:00:56;100280.9;;;14.4;100.0
72124;BME280;63818;37.134;-8.548;2024-03-08T18:05:44;100287.0;;;14.1;100.0
72124;BME280;63818;37.134;-8.548;2024-03-08T18:10:34;100274.0;;;13.9;100.0
72124;BME280;63818;37.134;-8.548;2024-03-08T18:15:22;100261.5;;;13.8;100.0
72124;BME280;63818;37.134;-8.548;2024-03-08T18:20:13;100251.2;;;13.9;100.0
72124;BME280;63818;37.134;-8.548;2024-03-08T18:25:01;100280.0;;;14.0;100.0
72124;BME280;63818;37.134;-8.548;2024-03-08T18:29:51;100255.9;;;14.1;100.0
72124;BME280;63818;37.134;-8.548;2024-03-08T18:34:42;100246.1;;;14.1;100.0
72124;BME280;63818;37.134;-8.548;2024-03-08T18:39:29;100237.0;;;14.2;100.0
72124;BME280;63818;37.134;-8.548;2024-03-08T18:44:19;100256.8;;;14.2;100.0
72124;BME280;63818;37.134;-8.548;2024-03-08T18:49:07;100209.4;;;14.2;100.0
72124;BME280;63818;37.134;-8.548;2024-03-08T18:53:55;100210.6;;;14.3;100.0
72124;BME280;63818;37.134;-8.548;2024-03-08T18:58:50;100195.6;;;14.3;100.0
72124;BME280;63818;37.134;-8.548;2024-03-08T19:03:38;100192.6;;;14.3;100.0
72124;BME280;63818;37.134;-8.548;2024-03-08T19:08:27;100182.7;;;14.4;100.0
72124;BME280;63818;37.134;-8.548;2024-03-08T19:13:23;100179.7;;;14.4;100.0
72124;BME280;63818;37.134;-8.548;2024-03-08T19:18:11;100155.5;;;14.4;100.0
72124;BME280;63818;37.134;-8.548;2024-03-08T19:22:59;100145.9;;;14.5;100.0
72124;BME280;63818;37.134;-8.548;2024-03-08T19:27:50;100146.9;;;14.5;100.0
72124;BME280;63818;37.134;-8.548;2024-03-08T19:32:41;100147.4;;;14.6;100.0
72124;BME280;63818;37.134;-8.548;2024-03-08T19:37:31;100153.2;;;14.6;100.0
72124;BME280;63818;37.134;-8.548;2024-03-08T19:42:21;100140.9;;;14.6;100.0
72124;BME280;63818;37.134;-8.548;2024-03-08T19:47:09;100137.9;;;14.6;100.0
72124;BME280;63818;37.134;-8.548;2024-03-08T19:51:57;100146.3;;;14.6;100.0
72124;BME280;63818;37.134;-8.548;2024-03-08T19:56:48;100146.7;;;14.6;100.0
72124;BME280;63818;37.134;-8.548;2024-03-08T20:01:36;100143.5;;;14.6;100.0
72124;BME280;63818;37.134;-8.548;2024-03-08T20:06:24;100129.9;;;14.6;100.0
72124;BME280;63818;37.134;-8.548;2024-03-08T20:11:16;100142.3;;;14.6;100.0
72124;BME280;63818;37.134;-8.548;2024-03-08T20:16:07;100128.5;;;14.6;100.0
72124;BME280;63818;37.134;-8.548;2024-03-08T20:20:55;100110.3;;;14.6;100.0
72124;BME280;63818;37.134;-8.548;2024-03-08T20:25:44;100120.4;;;14.6;100.0
72124;BME280;63818;37.134;-8.548;2024-03-08T20:30:32;100112.0;;;14.6;100.0
72124;BME280;63818;37.134;-8.548;2024-03-08T20:35:22;100131.7;;;14.6;100.0
72124;BME280;63818;37.134;-8.548;2024-03-08T20:40:11;100125.5;;;14.6;100.0
72124;BME280;63818;37.134;-8.548;2024-03-08T20:45:01;100131.2;;;14.6;100.0
72124;BME280;63818;37.134;-8.548;2024-03-08T20:49:50;100124.4;;;14.6;100.0
72124;BME280;63818;37.134;-8.548;2024-03-08T20:54:38;100190.8;;;14.5;100.0
72124;BME280;63818;37.134;-8.548;2024-03-08T20:59:26;100153.0;;;14.1;100.0
72124;BME280;63818;37.134;-8.548;2024-03-08T21:04:14;100148.1;;;14.0;100.0
72124;BME280;63818;37.134;-8.548;2024-03-08T21:09:06;100119.3;;;13.9;100.0
72124;BME280;63818;37.134;-8.548;2024-03-08T21:13:54;100141.3;;;13.9;100.0
72124;BME280;63818;37.134;-8.548;2024-03-08T21:18:43;100128.1;;;13.9;100.0
72124;BME280;63818;37.134;-8.548;2024-03-08T21:23:35;100142.4;;;13.9;100.0
72124;BME280;63818;37.134;-8.548;2024-03-08T21:28:27;100124.6;;;13.9;100.0
72124;BME280;63818;37.134;-8.548;2024-03-08T21:33:15;100122.5;;;13.9;100.0
72124;BME280;63818;37.134;-8.548;2024-03-08T21:38:03;100138.5;;;14.0;100.0
72124;BME280;63818;37.134;-8.548;2024-03-08T21:42:55;100142.9;;;14.1;100.0
72124;BME280;63818;37.134;-8.548;2024-03-08T21:47:43;100128.6;;;14.1;100.0
72124;BME280;63818;37.134;-8.548;2024-03-08T21:52:47;100138.6;;;14.1;100.0
72124;BME280;63818;37.134;-8.548;2024-03-08T21:57:35;100143.2;;;14.1;100.0
72124;BME280;63818;37.134;-8.548;2024-03-08T22:07:18;100139.8;;;14.1;100.0
72124;BME280;63818;37.134;-8.548;2024-03-08T22:12:09;100136.7;;;14.1;100.0
72124;BME280;63818;37.134;-8.548;2024-03-08T22:16:57;100151.8;;;14.1;100.0
72124;BME280;63818;37.134;-8.548;2024-03-08T22:21:59;100138.3;;;14.1;100.0
72124;BME280;63818;37.134;-8.548;2024-03-08T22:26:47;100129.8;;;14.1;100.0
72124;BME280;63818;37.134;-8.548;2024-03-08T22:31:40;100127.9;;;14.1;100.0
72124;BME280;63818;37.134;-8.548;2024-03-08T22:36:28;100137.9;;;14.1;100.0
72124;BME280;63818;37.134;-8.548;2024-03-08T22:41:16;100125.7;;;14.1;100.0
72124;BME280;63818;37.134;-8.548;2024-03-08T22:46:07;100140.3;;;14.1;100.0
72124;BME280;63818;37.134;-8.548;2024-03-08T22:50:56;100128.2;;;14.1;100.0
72124;BME280;63818;37.134;-8.548;2024-03-08T22:55:44;100114.0;;;14.1;100.0
72124;BME280;63818;37.134;-8.548;2024-03-08T23:00:33;100108.9;;;14.1;100.0
72124;BME280;63818;37.134;-8.548;2024-03-08T23:05:23;100112.4;;;14.1;100.0
72124;BME280;63818;37.134;-8.548;2024-03-08T23:10:14;100082.7;;;14.1;100.0
72124;BME280;63818;37.134;-8.548;2024-03-08T23:15:02;100084.2;;;14.0;100.0
72124;BME280;63818;37.134;-8.548;2024-03-08T23:19:51;100091.5;;;14.0;100.0
72124;BME280;63818;37.134;-8.548;2024-03-08T23:24:40;100086.1;;;14.0;100.0
72124;BME280;63818;37.134;-8.548;2024-03-08T23:29:30;100081.5;;;14.0;100.0
72124;BME280;63818;37.134;-8.548;2024-03-08T23:34:18;100077.2;;;14.0;100.0
72124;BME280;63818;37.134;-8.548;2024-03-08T23:39:13;100076.1;;;14.0;100.0
72124;BME280;63818;37.134;-8.548;2024-03-08T23:44:01;100059.4;;;14.0;100.0
72124;BME280;63818;37.134;-8.548;2024-03-08T23:48:49;100052.0;;;14.0;100.0
72124;BME280;63818;37.134;-8.548;2024-03-08T23:53:40;100054.3;;;14.0;100.0
72124;BME280;63818;37.134;-8.548;2024-03-08T23:58:30;100038.1;;;14.0;100.0
